sensor_id;sensor_type;location;lat;lon;timestamp;temperature;humidity
26035;DHT22;13809;48.632;11.576;2022-09-09T00:02:18;18.20;42.20
26035;DHT22;13809;48.632;11.576;2022-09-09T00:07:30;18.20;42.50
26035;DHT22;13809;48.632;11.576;2022-09-09T00:12:43;18.10;42.10
26035;DHT22;13809;48.632;11.576;2022-09-09T00:17:53;18.10;42.30
26035;DHT22;13809;48.632;11.576;2022-09-09T00:23:03;18.10;42.10
26035;DHT22;13809;48.632;11.576;2022-09-09T00:28:16;18.10;42.20
26035;DHT22;13809;48.632;11.576;2022-09-09T00:33:23;18.10;42.30
26035;DHT22;13809;48.632;11.576;2022-09-09T00:38:30;18.10;42.00
26035;DHT22;13809;48.632;11.576;2022-09-09T00:43:38;18.10;42.00
26035;DHT22;13809;48.632;11.576;2022-09-09T00:48:48;18.00;42.00
26035;DHT22;13809;48.632;11.576;2022-09-09T00:54:08;18.00;42.00
26035;DHT22;13809;48.632;11.576;2022-09-09T00:59:22;18.00;42.10
26035;DHT22;13809;48.632;11.576;2022-09-09T01:04:34;17.90;41.90
26035;DHT22;13809;48.632;11.576;2022-09-09T01:09:51;17.80;42.10
26035;DHT22;13809;48.632;11.576;2022-09-09T01:15:03;17.70;42.10
26035;DHT22;13809;48.632;11.576;2022-09-09T01:20:14;17.60;42.50
26035;DHT22;13809;48.632;11.576;2022-09-09T01:25:26;17.60;42.50
26035;DHT22;13809;48.632;11.576;2022-09-09T01:30:33;17.60;42.40
26035;DHT22;13809;48.632;11.576;2022-09-09T01:35:45;17.50;42.30
26035;DHT22;13809;48.632;11.576;2022-09-09T01:40:50;17.40;42.70
26035;DHT22;13809;48.632;11.576;2022-09-09T01:45:59;17.40;42.10
26035;DHT22;13809;48.632;11.576;2022-09-09T01:51:04;17.40;43.20
26035;DHT22;13809;48.632;11.576;2022-09-09T01:56:15;17.40;42.30
26035;DHT22;13809;48.632;11.576;2022-09-09T02:01:28;17.30;42.90
26035;DHT22;13809;48.632;11.576;2022-09-09T02:06:37;17.30;43.10
26035;DHT22;13809;48.632;11.576;2022-09-09T02:11:43;17.30;42.90
26035;DHT22;13809;48.632;11.576;2022-09-09T02:16:52;17.30;43.00
26035;DHT22;13809;48.632;11.576;2022-09-09T02:21:59;17.30;43.10
26035;DHT22;13809;48.632;11.576;2022-09-09T02:27:05;17.30;42.90
26035;DHT22;13809;48.632;11.576;2022-09-09T02:32:14;17.30;42.80
26035;DHT22;13809;48.632;11.576;2022-09-09T02:37:21;17.30;43.00
26035;DHT22;13809;48.632;11.576;2022-09-09T02:42:26;17.30;42.80
26035;DHT22;13809;48.632;11.576;2022-09-09T02:47:34;17.30;42.60
26035;DHT22;13809;48.632;11.576;2022-09-09T02:52:46;17.30;43.00
26035;DHT22;13809;48.632;11.576;2022-09-09T02:57:51;17.30;42.80
26035;DHT22;13809;48.632;11.576;2022-09-09T03:02:56;17.20;42.60
26035;DHT22;13809;48.632;11.576;2022-09-09T03:08:00;17.20;42.60
26035;DHT22;13809;48.632;11.576;2022-09-09T03:13:04;17.20;42.60
26035;DHT22;13809;48.632;11.576;2022-09-09T03:18:08;17.20;42.70
26035;DHT22;13809;48.632;11.576;2022-09-09T03:23:11;17.10;42.60
26035;DHT22;13809;48.632;11.576;2022-09-09T03:28:16;17.10;42.50
26035;DHT22;13809;48.632;11.576;2022-09-09T03:33:21;17.10;42.60
26035;DHT22;13809;48.632;11.576;2022-09-09T03:38:25;17.10;42.80
26035;DHT22;13809;48.632;11.576;2022-09-09T03:43:28;17.10;42.60
26035;DHT22;13809;48.632;11.576;2022-09-09T03:48:33;17.10;42.80
26035;DHT22;13809;48.632;11.576;2022-09-09T03:53:36;17.10;42.90
26035;DHT22;13809;48.632;11.576;2022-09-09T03:58:40;17.10;42.80
26035;DHT22;13809;48.632;11.576;2022-09-09T04:03:45;17.00;42.70
26035;DHT22;13809;48.632;11.576;2022-09-09T04:08:48;17.00;42.80
26035;DHT22;13809;48.632;11.576;2022-09-09T04:13:51;17.00;42.70
26035;DHT22;13809;48.632;11.576;2022-09-09T04:18:56;17.00;42.80
26035;DHT22;13809;48.632;11.576;2022-09-09T04:23:59;17.00;42.90
26035;DHT22;13809;48.632;11.576;2022-09-09T04:29:03;17.00;42.70
26035;DHT22;13809;48.632;11.576;2022-09-09T04:34:07;17.00;42.70
26035;DHT22;13809;48.632;11.576;2022-09-09T04:45:35;16.90;42.90
26035;DHT22;13809;48.632;11.576;2022-09-09T04:50:40;16.90;42.50
26035;DHT22;13809;48.632;11.576;2022-09-09T04:55:43;16.80;42.80
26035;DHT22;13809;48.632;11.576;2022-09-09T05:00:46;16.80;42.90
26035;DHT22;13809;48.632;11.576;2022-09-09T05:05:51;16.80;43.00
26035;DHT22;13809;48.632;11.576;2022-09-09T05:10:54;16.80;43.40
26035;DHT22;13809;48.632;11.576;2022-09-09T05:15:58;16.80;43.10
26035;DHT22;13809;48.632;11.576;2022-09-09T05:21:03;16.70;43.00
26035;DHT22;13809;48.632;11.576;2022-09-09T05:26:09;16.70;43.40
26035;DHT22;13809;48.632;11.576;2022-09-09T05:31:19;16.70;43.60
26035;DHT22;13809;48.632;11.576;2022-09-09T05:36:24;16.60;43.90
26035;DHT22;13809;48.632;11.576;2022-09-09T05:41:27;16.60;44.50
26035;DHT22;13809;48.632;11.576;2022-09-09T05:46:30;16.70;44.50
26035;DHT22;13809;48.632;11.576;2022-09-09T05:51:35;16.70;44.40
26035;DHT22;13809;48.632;11.576;2022-09-09T05:56:38;16.80;45.10
26035;DHT22;13809;48.632;11.576;2022-09-09T06:01:41;16.80;44.70
26035;DHT22;13809;48.632;11.576;2022-09-09T06:06:46;16.90;44.80
26035;DHT22;13809;48.632;11.576;2022-09-09T06:11:50;17.00;45.40
26035;DHT22;13809;48.632;11.576;2022-09-09T06:16:54;17.00;45.10
26035;DHT22;13809;48.632;11.576;2022-09-09T06:21:59;17.10;45.20
26035;DHT22;13809;48.632;11.576;2022-09-09T06:27:03;17.20;45.60
26035;DHT22;13809;48.632;11.576;2022-09-09T06:32:07;17.20;45.40
26035;DHT22;13809;48.632;11.576;2022-09-09T06:37:12;17.30;45.20
26035;DHT22;13809;48.632;11.576;2022-09-09T06:42:16;17.30;45.90
26035;DHT22;13809;48.632;11.576;2022-09-09T06:47:21;17.30;45.80
26035;DHT22;13809;48.632;11.576;2022-09-09T06:52:26;17.30;46.30
26035;DHT22;13809;48.632;11.576;2022-09-09T06:57:30;17.30;46.30
26035;DHT22;13809;48.632;11.576;2022-09-09T07:02:38;17.30;46.10
26035;DHT22;13809;48.632;11.576;2022-09-09T07:07:44;17.40;46.40
26035;DHT22;13809;48.632;11.576;2022-09-09T07:12:50;17.40;46.50
26035;DHT22;13809;48.632;11.576;2022-09-09T07:17:54;17.40;47.30
26035;DHT22;13809;48.632;11.576;2022-09-09T07:23:00;17.40;46.50
26035;DHT22;13809;48.632;11.576;2022-09-09T07:28:03;17.50;47.60
26035;DHT22;13809;48.632;11.576;2022-09-09T07:33:07;17.50;46.50
26035;DHT22;13809;48.632;11.576;2022-09-09T07:38:12;17.50;46.70
26035;DHT22;13809;48.632;11.576;2022-09-09T07:43:17;17.60;47.60
26035;DHT22;13809;48.632;11.576;2022-09-09T07:48:20;17.70;46.90
26035;DHT22;13809;48.632;11.576;2022-09-09T07:53:25;17.70;47.30
26035;DHT22;13809;48.632;11.576;2022-09-09T07:58:30;17.80;48.10
26035;DHT22;13809;48.632;11.576;2022-09-09T08:03:40;17.80;48.70
26035;DHT22;13809;48.632;11.576;2022-09-09T08:08:49;17.90;48.20
26035;DHT22;13809;48.632;11.576;2022-09-09T08:13:53;18.00;49.60
26035;DHT22;13809;48.632;11.576;2022-09-09T08:19:03;18.10;48.30
26035;DHT22;13809;48.632;11.576;2022-09-09T08:24:09;18.10;48.30
26035;DHT22;13809;48.632;11.576;2022-09-09T08:29:13;18.20;49.00
26035;DHT22;13809;48.632;11.576;2022-09-09T08:34:17;18.30;48.80
26035;DHT22;13809;48.632;11.576;2022-09-09T08:39:23;18.30;49.00
26035;DHT22;13809;48.632;11.576;2022-09-09T08:44:37;18.40;50.00
26035;DHT22;13809;48.632;11.576;2022-09-09T08:50:11;18.50;51.10
26035;DHT22;13809;48.632;11.576;2022-09-09T08:55:24;18.70;50.70
26035;DHT22;13809;48.632;11.576;2022-09-09T09:00:33;18.80;51.00
26035;DHT22;13809;48.632;11.576;2022-09-09T09:05:46;18.90;50.80
26035;DHT22;13809;48.632;11.576;2022-09-09T09:10:54;19.10;50.90
26035;DHT22;13809;48.632;11.576;2022-09-09T09:16:02;19.20;50.70
26035;DHT22;13809;48.632;11.576;2022-09-09T09:21:13;19.40;50.50
26035;DHT22;13809;48.632;11.576;2022-09-09T09:26:24;19.60;50.40
26035;DHT22;13809;48.632;11.576;2022-09-09T09:31:29;19.80;50.50
26035;DHT22;13809;48.632;11.576;2022-09-09T09:36:39;19.90;49.40
26035;DHT22;13809;48.632;11.576;2022-09-09T09:41:44;20.10;49.50
26035;DHT22;13809;48.632;11.576;2022-09-09T09:46:47;20.30;49.00
26035;DHT22;13809;48.632;11.576;2022-09-09T09:51:51;20.40;49.10
26035;DHT22;13809;48.632;11.576;2022-09-09T09:56:55;20.50;49.20
26035;DHT22;13809;48.632;11.576;2022-09-09T10:02:16;20.60;49.20
26035;DHT22;13809;48.632;11.576;2022-09-09T10:07:21;20.70;47.80
26035;DHT22;13809;48.632;11.576;2022-09-09T10:12:34;20.80;47.80
26035;DHT22;13809;48.632;11.576;2022-09-09T10:17:56;21.00;46.70
26035;DHT22;13809;48.632;11.576;2022-09-09T10:23:11;21.10;47.90
26035;DHT22;13809;48.632;11.576;2022-09-09T10:28:37;21.30;47.00
26035;DHT22;13809;48.632;11.576;2022-09-09T10:33:51;21.50;46.20
26035;DHT22;13809;48.632;11.576;2022-09-09T10:39:01;21.60;46.30
26035;DHT22;13809;48.632;11.576;2022-09-09T10:44:17;21.70;46.30
26035;DHT22;13809;48.632;11.576;2022-09-09T10:49:34;21.80;44.70
26035;DHT22;13809;48.632;11.576;2022-09-09T10:54:48;22.00;43.30
26035;DHT22;13809;48.632;11.576;2022-09-09T10:59:58;22.20;45.00
26035;DHT22;13809;48.632;11.576;2022-09-09T11:05:05;22.30;44.30
26035;DHT22;13809;48.632;11.576;2022-09-09T11:10:18;22.40;44.30
26035;DHT22;13809;48.632;11.576;2022-09-09T11:15:30;22.50;43.50
26035;DHT22;13809;48.632;11.576;2022-09-09T11:20:35;22.60;43.70
26035;DHT22;13809;48.632;11.576;2022-09-09T11:25:41;22.60;44.20
26035;DHT22;13809;48.632;11.576;2022-09-09T11:30:54;22.60;43.20
26035;DHT22;13809;48.632;11.576;2022-09-09T11:36:13;22.60;42.30
26035;DHT22;13809;48.632;11.576;2022-09-09T11:41:20;22.60;43.00
26035;DHT22;13809;48.632;11.576;2022-09-09T11:46:37;22.60;43.20
26035;DHT22;13809;48.632;11.576;2022-09-09T11:51:41;22.70;43.20
26035;DHT22;13809;48.632;11.576;2022-09-09T11:56:44;22.70;43.70
26035;DHT22;13809;48.632;11.576;2022-09-09T12:01:55;22.70;43.20
26035;DHT22;13809;48.632;11.576;2022-09-09T12:07:01;22.80;42.90
26035;DHT22;13809;48.632;11.576;2022-09-09T12:12:07;22.80;43.00
26035;DHT22;13809;48.632;11.576;2022-09-09T12:17:19;22.90;43.50
26035;DHT22;13809;48.632;11.576;2022-09-09T12:22:32;22.90;42.90
26035;DHT22;13809;48.632;11.576;2022-09-09T12:27:45;23.00;42.60
26035;DHT22;13809;48.632;11.576;2022-09-09T12:33:01;23.00;42.60
26035;DHT22;13809;48.632;11.576;2022-09-09T12:38:05;23.00;42.40
26035;DHT22;13809;48.632;11.576;2022-09-09T12:43:17;23.10;42.70
26035;DHT22;13809;48.632;11.576;2022-09-09T12:48:30;23.20;42.40
26035;DHT22;13809;48.632;11.576;2022-09-09T12:53:37;23.20;42.70
26035;DHT22;13809;48.632;11.576;2022-09-09T12:58:46;23.40;42.40
26035;DHT22;13809;48.632;11.576;2022-09-09T13:03:51;23.50;41.60
26035;DHT22;13809;48.632;11.576;2022-09-09T13:08:56;23.60;41.10
26035;DHT22;13809;48.632;11.576;2022-09-09T13:14:00;23.70;41.20
26035;DHT22;13809;48.632;11.576;2022-09-09T13:19:09;23.80;41.00
26035;DHT22;13809;48.632;11.576;2022-09-09T13:24:27;23.90;39.90
26035;DHT22;13809;48.632;11.576;2022-09-09T13:29:32;23.90;39.90
26035;DHT22;13809;48.632;11.576;2022-09-09T13:34:37;23.90;40.30
26035;DHT22;13809;48.632;11.576;2022-09-09T13:39:40;23.90;39.90
26035;DHT22;13809;48.632;11.576;2022-09-09T13:44:46;23.90;40.50
26035;DHT22;13809;48.632;11.576;2022-09-09T13:49:51;23.90;39.20
26035;DHT22;13809;48.632;11.576;2022-09-09T13:54:54;23.90;39.90
26035;DHT22;13809;48.632;11.576;2022-09-09T14:00:00;23.90;39.90
26035;DHT22;13809;48.632;11.576;2022-09-09T14:05:08;23.90;39.90
26035;DHT22;13809;48.632;11.576;2022-09-09T14:10:12;23.90;39.10
26035;DHT22;13809;48.632;11.576;2022-09-09T14:15:16;23.80;39.00
26035;DHT22;13809;48.632;11.576;2022-09-09T14:20:20;23.70;39.70
26035;DHT22;13809;48.632;11.576;2022-09-09T14:25:24;23.60;38.90
26035;DHT22;13809;48.632;11.576;2022-09-09T14:30:27;23.70;39.80
26035;DHT22;13809;48.632;11.576;2022-09-09T14:35:32;23.80;39.10
26035;DHT22;13809;48.632;11.576;2022-09-09T14:40:36;23.90;38.00
26035;DHT22;13809;48.632;11.576;2022-09-09T14:45:40;23.80;38.00
26035;DHT22;13809;48.632;11.576;2022-09-09T14:50:46;23.80;38.20
26035;DHT22;13809;48.632;11.576;2022-09-09T14:55:51;23.60;37.80
26035;DHT22;13809;48.632;11.576;2022-09-09T15:00:54;23.50;38.30
26035;DHT22;13809;48.632;11.576;2022-09-09T15:06:04;23.50;38.60
26035;DHT22;13809;48.632;11.576;2022-09-09T15:11:07;23.40;38.30
26035;DHT22;13809;48.632;11.576;2022-09-09T15:16:13;23.40;38.70
26035;DHT22;13809;48.632;11.576;2022-09-09T15:21:19;23.40;38.10
26035;DHT22;13809;48.632;11.576;2022-09-09T15:26:23;23.30;37.90
26035;DHT22;13809;48.632;11.576;2022-09-09T15:31:28;23.30;38.50
26035;DHT22;13809;48.632;11.576;2022-09-09T15:36:34;23.30;37.80
26035;DHT22;13809;48.632;11.576;2022-09-09T15:41:38;23.20;37.40
26035;DHT22;13809;48.632;11.576;2022-09-09T15:46:43;23.00;37.50
26035;DHT22;13809;48.632;11.576;2022-09-09T15:51:51;22.90;38.20
26035;DHT22;13809;48.632;11.576;2022-09-09T15:56:56;22.70;36.70
26035;DHT22;13809;48.632;11.576;2022-09-09T16:02:00;22.60;37.10
26035;DHT22;13809;48.632;11.576;2022-09-09T16:07:05;22.40;37.30
26035;DHT22;13809;48.632;11.576;2022-09-09T16:12:09;22.20;37.10
26035;DHT22;13809;48.632;11.576;2022-09-09T16:17:14;22.10;37.30
26035;DHT22;13809;48.632;11.576;2022-09-09T16:22:19;22.00;37.60
26035;DHT22;13809;48.632;11.576;2022-09-09T16:27:23;21.90;36.60
26035;DHT22;13809;48.632;11.576;2022-09-09T16:32:26;21.90;37.10
26035;DHT22;13809;48.632;11.576;2022-09-09T16:37:31;21.90;37.00
26035;DHT22;13809;48.632;11.576;2022-09-09T16:42:35;21.80;36.70
26035;DHT22;13809;48.632;11.576;2022-09-09T16:47:40;21.80;37.20
26035;DHT22;13809;48.632;11.576;2022-09-09T16:52:45;21.70;37.00
26035;DHT22;13809;48.632;11.576;2022-09-09T16:57:48;21.60;36.80
26035;DHT22;13809;48.632;11.576;2022-09-09T17:02:51;21.60;37.40
26035;DHT22;13809;48.632;11.576;2022-09-09T17:07:56;21.50;37.30
26035;DHT22;13809;48.632;11.576;2022-09-09T17:12:59;21.40;37.00
26035;DHT22;13809;48.632;11.576;2022-09-09T17:18:03;21.30;37.60
26035;DHT22;13809;48.632;11.576;2022-09-09T17:23:09;21.20;37.60
26035;DHT22;13809;48.632;11.576;2022-09-09T17:28:12;21.10;37.50
26035;DHT22;13809;48.632;11.576;2022-09-09T17:33:17;21.00;37.40
26035;DHT22;13809;48.632;11.576;2022-09-09T17:38:24;21.00;37.40
26035;DHT22;13809;48.632;11.576;2022-09-09T17:43:29;20.90;37.90
26035;DHT22;13809;48.632;11.576;2022-09-09T17:48:32;20.90;38.90
26035;DHT22;13809;48.632;11.576;2022-09-09T17:53:39;20.80;38.70
26035;DHT22;13809;48.632;11.576;2022-09-09T17:58:45;20.70;39.20
26035;DHT22;13809;48.632;11.576;2022-09-09T18:03:50;20.70;39.50
26035;DHT22;13809;48.632;11.576;2022-09-09T18:08:56;20.70;39.90
26035;DHT22;13809;48.632;11.576;2022-09-09T18:14:01;20.70;40.40
26035;DHT22;13809;48.632;11.576;2022-09-09T18:19:06;20.70;40.30
26035;DHT22;13809;48.632;11.576;2022-09-09T18:24:12;20.80;40.20
26035;DHT22;13809;48.632;11.576;2022-09-09T18:29:19;20.70;40.30
26035;DHT22;13809;48.632;11.576;2022-09-09T18:34:23;20.70;40.60
26035;DHT22;13809;48.632;11.576;2022-09-09T18:39:31;20.60;40.40
26035;DHT22;13809;48.632;11.576;2022-09-09T18:44:34;20.60;40.80
26035;DHT22;13809;48.632;11.576;2022-09-09T18:49:37;20.60;40.50
26035;DHT22;13809;48.632;11.576;2022-09-09T18:54:42;20.60;40.70
26035;DHT22;13809;48.632;11.576;2022-09-09T18:59:46;20.60;41.20
26035;DHT22;13809;48.632;11.576;2022-09-09T19:04:51;20.50;40.50
26035;DHT22;13809;48.632;11.576;2022-09-09T19:09:56;20.60;41.00
26035;DHT22;13809;48.632;11.576;2022-09-09T19:14:59;20.50;40.90
26035;DHT22;13809;48.632;11.576;2022-09-09T19:20:03;20.50;40.70
26035;DHT22;13809;48.632;11.576;2022-09-09T19:25:11;20.30;40.70
26035;DHT22;13809;48.632;11.576;2022-09-09T19:30:14;20.20;40.80
26035;DHT22;13809;48.632;11.576;2022-09-09T19:35:18;19.90;40.50
26035;DHT22;13809;48.632;11.576;2022-09-09T19:40:23;19.80;41.10
26035;DHT22;13809;48.632;11.576;2022-09-09T19:45:26;19.70;41.60
26035;DHT22;13809;48.632;11.576;2022-09-09T19:56:53;19.50;41.00
26035;DHT22;13809;48.632;11.576;2022-09-09T20:01:56;19.40;41.20
26035;DHT22;13809;48.632;11.576;2022-09-09T20:07:00;19.30;41.20
26035;DHT22;13809;48.632;11.576;2022-09-09T20:12:05;19.30;41.40
26035;DHT22;13809;48.632;11.576;2022-09-09T20:17:09;19.30;42.10
26035;DHT22;13809;48.632;11.576;2022-09-09T20:22:12;19.30;41.30
26035;DHT22;13809;48.632;11.576;2022-09-09T20:27:17;19.20;41.20
26035;DHT22;13809;48.632;11.576;2022-09-09T20:32:20;19.20;41.80
26035;DHT22;13809;48.632;11.576;2022-09-09T20:37:23;19.10;41.40
26035;DHT22;13809;48.632;11.576;2022-09-09T20:42:28;19.10;41.80
26035;DHT22;13809;48.632;11.576;2022-09-09T20:47:31;19.10;42.30
26035;DHT22;13809;48.632;11.576;2022-09-09T20:52:34;19.10;41.90
26035;DHT22;13809;48.632;11.576;2022-09-09T20:57:39;19.10;42.10
26035;DHT22;13809;48.632;11.576;2022-09-09T21:02:45;19.10;42.50
26035;DHT22;13809;48.632;11.576;2022-09-09T21:07:50;19.20;42.60
26035;DHT22;13809;48.632;11.576;2022-09-09T21:12:55;19.20;42.60
26035;DHT22;13809;48.632;11.576;2022-09-09T21:18:23;19.10;42.30
26035;DHT22;13809;48.632;11.576;2022-09-09T21:23:29;19.00;42.50
26035;DHT22;13809;48.632;11.576;2022-09-09T21:28:34;19.00;42.10
26035;DHT22;13809;48.632;11.576;2022-09-09T21:33:37;19.00;42.50
26035;DHT22;13809;48.632;11.576;2022-09-09T21:38:41;18.90;41.90
26035;DHT22;13809;48.632;11.576;2022-09-09T21:43:51;18.80;41.80
26035;DHT22;13809;48.632;11.576;2022-09-09T21:48:54;18.60;42.50
26035;DHT22;13809;48.632;11.576;2022-09-09T21:53:58;18.50;42.00
26035;DHT22;13809;48.632;11.576;2022-09-09T21:59:05;18.40;42.10
26035;DHT22;13809;48.632;11.576;2022-09-09T22:04:10;18.40;43.20
26035;DHT22;13809;48.632;11.576;2022-09-09T22:09:14;18.40;43.00
26035;DHT22;13809;48.632;11.576;2022-09-09T22:14:18;18.40;42.50
26035;DHT22;13809;48.632;11.576;2022-09-09T22:19:21;18.40;42.70
26035;DHT22;13809;48.632;11.576;2022-09-09T22:24:26;18.40;42.40
26035;DHT22;13809;48.632;11.576;2022-09-09T22:29:31;18.40;42.80
26035;DHT22;13809;48.632;11.576;2022-09-09T22:34:34;18.30;42.70
26035;DHT22;13809;48.632;11.576;2022-09-09T22:39:37;18.20;42.50
26035;DHT22;13809;48.632;11.576;2022-09-09T22:44:43;18.20;42.60
26035;DHT22;13809;48.632;11.576;2022-09-09T22:49:46;18.20;43.20
26035;DHT22;13809;48.632;11.576;2022-09-09T22:54:49;18.10;42.80
26035;DHT22;13809;48.632;11.576;2022-09-09T22:59:58;18.10;42.90
26035;DHT22;13809;48.632;11.576;2022-09-09T23:05:05;18.00;43.60
26035;DHT22;13809;48.632;11.576;2022-09-09T23:10:10;18.00;43.60
26035;DHT22;13809;48.632;11.576;2022-09-09T23:15:15;18.00;43.30
26035;DHT22;13809;48.632;11.576;2022-09-09T23:20:19;18.00;43.30
26035;DHT22;13809;48.632;11.576;2022-09-09T23:25:22;18.00;43.10
26035;DHT22;13809;48.632;11.576;2022-09-09T23:30:27;17.90;42.90
26035;DHT22;13809;48.632;11.576;2022-09-09T23:35:32;17.80;43.30
26035;DHT22;13809;48.632;11.576;2022-09-09T23:40:35;17.70;43.40
26035;DHT22;13809;48.632;11.576;2022-09-09T23:45:40;17.60;44.00
26035;DHT22;13809;48.632;11.576;2022-09-09T23:50:43;17.50;44.00
26035;DHT22;13809;48.632;11.576;2022-09-09T23:55:46;17.40;43.80
